Time,TemperatureF,DewpointF,PressureIn,WindDirection,WindDirectionDegrees,WindSpeedMPH,WindSpeedGustMPH,Humidity,HourlyPrecipIn,Conditions,Clouds,dailyrainin,SoftwareType,DateUTC
2013-03-07 00:00:00,33.3,29.6,30.23,WNW,302,3.0,3.0,86,0.00,,,0.37,Wunderground v.1.13,2013-03-07 05:00:00,
2013-03-07 00:05:00,33.3,29.6,30.23,NW,317,2.0,3.0,86,0.00,,,0.37,Wunderground v.1.13,2013-03-07 05:05:00,
2013-03-07 00:10:00,33.3,29.6,30.23,WNW,298,2.0,4.0,86,0.00,,,0.00,Wunderground v.1.13,2013-03-07 05:10:00,
2013-03-07 00:20:00,33.2,29.5,30.23,West,276,2.0,4.0,86,0.00,,,0.00,Wunderground v.1.13,2013-03-07 05:20:00,
2013-03-07 00:25:00,33.2,29.5,30.23,WNW,283,1.0,1.0,86,0.00,,,0.00,Wunderground v.1.13,2013-03-07 05:25:00,
2013-03-07 00:30:00,33.2,29.5,30.22,WNW,283,2.0,4.0,86,0.00,,,0.00,Wunderground v.1.13,2013-03-07 05:30:00,
2013-03-07 00:40:00,33.2,29.5,30.22,West,281,1.0,6.0,86,0.00,,,0.00,Wunderground v.1.13,2013-03-07 05:40:00,
2013-03-07 00:45:00,33.1,29.4,30.22,WNW,286,2.0,5.0,86,0.00,,,0.00,Wunderground v.1.13,2013-03-07 05:45:00,
2013-03-07 00:55:00,33.2,29.5,30.22,West,281,3.0,3.0,86,0.00,,,0.00,Wunderground v.1.13,2013-03-07 05:55:00,
2013-03-07 01:05:00,33.1,29.4,30.23,West,281,2.0,2.0,86,0.00,,,0.00,Wunderground v.1.13,2013-03-07 06:05:00,
2013-03-07 01:15:00,33.0,29.3,30.23,WNW,287,2.0,3.0,86,0.00,,,0.00,Wunderground v.1.13,2013-03-07 06:15:00,
2013-03-07 01:25:00,33.0,29.3,30.24,WNW,287,3.0,4.0,86,0.00,,,0.00,Wunderground v.1.13,2013-03-07 06:25:00,
2013-03-07 01:35:00,33.0,29.3,30.24,WNW,282,5.0,5.0,86,0.00,,,0.00,Wunderground v.1.13,2013-03-07 06:35:00,
2013-03-07 01:40:00,33.0,29.3,30.24,WNW,282,4.0,4.0,86,0.00,,,0.00,Wunderground v.1.13,2013-03-07 06:40:00,
2013-03-07 01:45:00,32.9,29.2,30.24,West,277,4.0,5.0,86,0.00,,,0.00,Wunderground v.1.13,2013-03-07 06:45:00,
2013-03-07 01:55:00,32.9,29.2,30.25,West,270,4.0,4.0,86,0.00,,,0.00,Wunderground v.1.13,2013-03-07 06:55:00,
2013-03-07 02:05:00,32.8,29.1,30.25,West,271,3.0,3.0,86,0.00,,,0.00,Wunderground v.1.13,2013-03-07 07:05:00,
2013-03-07 02:10:00,32.8,29.1,30.25,West,275,4.0,4.0,86,0.00,,,0.00,Wunderground v.1.13,2013-03-07 07:10:00,
2013-03-07 02:20:00,32.7,29.0,30.25,West,273,3.0,3.0,86,0.00,,,0.00,Wunderground v.1.13,2013-03-07 07:20:00,
2013-03-07 02:30:00,32.7,29.0,30.25,WNW,283,4.0,6.0,86,0.00,,,0.00,Wunderground v.1.13,2013-03-07 07:30:00,
2013-03-07 02:40:00,32.6,28.9,30.25,WNW,289,4.0,6.0,86,0.00,,,0.00,Wunderground v.1.13,2013-03-07 07:40:00,
2013-03-07 02:45:00,32.6,28.9,30.25,WNW,289,5.0,5.0,86,0.00,,,0.00,Wunderground v.1.13,2013-03-07 07:45:00,
2013-03-07 02:55:00,32.5,28.8,30.25,WNW,291,4.0,4.0,86,0.00,,,0.00,Wunderground v.1.13,2013-03-07 07:55:00,
2013-03-07 03:05:00,32.5,28.8,30.24,WNW,291,4.0,5.0,86,0.00,,,0.00,Wunderground v.1.13,2013-03-07 08:05:00,
2013-03-07 03:10:00,32.4,28.7,30.24,WNW,293,3.0,3.0,86,0.00,,,0.00,Wunderground v.1.13,2013-03-07 08:10:00,
2013-03-07 03:20:00,32.4,28.7,30.25,WNW,290,3.0,3.0,86,0.00,,,0.00,Wunderground v.1.13,2013-03-07 08:20:00,
2013-03-07 03:30:00,32.4,28.7,30.25,WNW,283,3.0,3.0,86,0.00,,,0.00,Wunderground v.1.13,2013-03-07 08:30:00,
2013-03-07 03:40:00,32.4,28.7,30.25,WNW,288,2.0,4.0,86,0.00,,,0.00,Wunderground v.1.13,2013-03-07 08:40:00,
2013-03-07 03:50:00,32.3,28.6,30.25,WNW,288,2.0,3.0,86,0.00,,,0.00,Wunderground v.1.13,2013-03-07 08:50:00,
2013-03-07 04:00:00,32.3,28.6,30.25,WNW,288,1.0,1.0,86,0.00,,,0.00,Wunderground v.1.13,2013-03-07 09:00:00,
2013-03-07 04:10:00,32.2,28.5,30.25,WNW,288,1.0,2.0,86,0.00,,,0.00,Wunderground v.1.13,2013-03-07 09:10:00,
2013-03-07 04:20:00,32.1,28.7,30.25,WNW,288,1.0,1.0,87,0.00,,,0.00,Wunderground v.1.13,2013-03-07 09:20:00,
2013-03-07 04:25:00,32.1,28.7,30.25,WNW,288,1.0,1.0,87,0.00,,,0.00,Wunderground v.1.13,2013-03-07 09:25:00,
2013-03-07 04:35:00,32.1,28.4,30.26,WNW,288,3.0,4.0,86,0.00,,,0.00,Wunderground v.1.13,2013-03-07 09:35:00,
2013-03-07 04:45:00,32.2,28.5,30.26,WNW,289,5.0,7.0,86,0.00,,,0.00,Wunderground v.1.13,2013-03-07 09:45:00,
2013-03-07 04:50:00,32.3,28.6,30.26,WNW,289,4.0,5.0,86,0.00,,,0.00,Wunderground v.1.13,2013-03-07 09:50:00,
2013-03-07 05:00:00,32.2,28.5,30.26,WNW,288,4.0,5.0,86,0.00,,,0.00,Wunderground v.1.13,2013-03-07 10:00:00,
2013-03-07 05:10:00,32.2,28.5,30.26,WNW,290,4.0,4.0,86,0.00,,,0.00,Wunderground v.1.13,2013-03-07 10:10:00,
2013-03-07 05:20:00,32.1,28.4,30.27,WNW,290,3.0,3.0,86,0.00,,,0.00,Wunderground v.1.13,2013-03-07 10:20:00,
2013-03-07 05:25:00,32.1,28.4,30.27,WNW,293,3.0,6.0,86,0.00,,,0.00,Wunderground v.1.13,2013-03-07 10:25:00,
2013-03-07 05:35:00,32.1,28.4,30.27,WNW,292,4.0,4.0,86,0.00,,,0.00,Wunderground v.1.13,2013-03-07 10:35:00,
2013-03-07 05:45:00,32.1,28.4,30.27,WNW,292,4.0,5.0,86,0.00,,,0.00,Wunderground v.1.13,2013-03-07 10:45:00,
2013-03-07 05:50:00,32.1,28.4,30.27,WNW,292,4.0,4.0,86,0.00,,,0.00,Wunderground v.1.13,2013-03-07 10:50:00,
2013-03-07 06:00:00,32.0,28.3,30.28,WNW,292,3.0,3.0,86,0.00,,,0.00,Wunderground v.1.13,2013-03-07 11:00:00,
2013-03-07 06:05:00,32.1,28.4,30.28,WNW,292,3.0,3.0,86,0.00,,,0.00,Wunderground v.1.13,2013-03-07 11:05:00,
2013-03-07 06:15:00,32.1,28.4,30.29,WNW,292,4.0,5.0,86,0.00,,,0.00,Wunderground v.1.13,2013-03-07 11:15:00,
2013-03-07 06:20:00,32.1,28.4,30.29,WNW,292,4.0,4.0,86,0.00,,,0.00,Wunderground v.1.13,2013-03-07 11:20:00,
2013-03-07 06:30:00,32.2,28.5,30.29,WNW,282,5.0,5.0,86,0.00,,,0.00,Wunderground v.1.13,2013-03-07 11:30:00,
2013-03-07 06:40:00,32.2,28.2,30.30,West,277,4.0,4.0,85,0.00,,,0.00,Wunderground v.1.13,2013-03-07 11:40:00,
2013-03-07 06:45:00,32.2,28.2,30.30,West,279,4.0,5.0,85,0.00,,,0.00,Wunderground v.1.13,2013-03-07 11:45:00,
2013-03-07 06:50:00,32.2,28.2,30.30,West,280,4.0,4.0,85,0.00,,,0.00,Wunderground v.1.13,2013-03-07 11:50:00,
2013-03-07 07:00:00,32.3,28.3,30.30,West,281,4.0,4.0,85,0.00,,,0.00,Wunderground v.1.13,2013-03-07 12:00:00,
2013-03-07 07:10:00,32.3,28.3,30.30,West,280,3.0,3.0,85,0.00,,,0.00,Wunderground v.1.13,2013-03-07 12:10:00,
2013-03-07 07:20:00,32.4,28.4,30.31,West,281,3.0,3.0,85,0.00,,,0.00,Wunderground v.1.13,2013-03-07 12:20:00,
2013-03-07 07:25:00,32.5,28.5,30.31,West,281,3.0,3.0,85,0.00,,,0.00,Wunderground v.1.13,2013-03-07 12:25:00,
2013-03-07 07:35:00,32.6,28.3,30.31,West,281,1.0,1.0,84,0.00,,,0.00,Wunderground v.1.13,2013-03-07 12:35:00,
2013-03-07 07:40:00,32.6,28.3,30.31,West,281,0.0,0.0,84,0.00,,,0.00,Wunderground v.1.13,2013-03-07 12:40:00,
2013-03-07 07:45:00,32.7,28.4,30.32,West,281,1.0,2.0,84,0.00,,,0.00,Wunderground v.1.13,2013-03-07 12:45:00,
2013-03-07 07:55:00,32.8,28.5,30.32,West,281,2.0,4.0,84,0.00,,,0.00,Wunderground v.1.13,2013-03-07 12:55:00,
2013-03-07 08:05:00,32.8,28.2,30.32,West,281,4.0,4.0,83,0.00,,,0.00,Wunderground v.1.13,2013-03-07 13:05:00,
2013-03-07 08:10:00,32.9,28.3,30.32,West,281,3.0,4.0,83,0.00,,,0.00,Wunderground v.1.13,2013-03-07 13:10:00,
2013-03-07 08:15:00,32.9,28.3,30.33,West,281,2.0,2.0,83,0.00,,,0.00,Wunderground v.1.13,2013-03-07 13:15:00,
2013-03-07 08:25:00,33.0,28.4,30.33,West,281,1.0,1.0,83,0.00,,,0.00,Wunderground v.1.13,2013-03-07 13:25:00,
2013-03-07 08:30:00,33.1,28.5,30.33,West,281,1.0,1.0,83,0.00,,,0.00,Wunderground v.1.13,2013-03-07 13:30:00,
2013-03-07 08:40:00,33.3,28.7,30.33,West,281,0.0,0.0,83,0.00,,,0.00,Wunderground v.1.13,2013-03-07 13:40:00,
2013-03-07 08:50:00,33.4,28.5,30.34,West,281,1.0,1.0,82,0.00,,,0.00,Wunderground v.1.13,2013-03-07 13:50:00,
2013-03-07 08:55:00,33.4,28.5,30.34,WNW,282,1.0,6.0,82,0.00,,,0.00,Wunderground v.1.13,2013-03-07 13:55:00,
2013-03-07 09:05:00,33.6,28.4,30.34,WNW,284,4.0,4.0,81,0.00,,,0.00,Wunderground v.1.13,2013-03-07 14:05:00,
2013-03-07 09:15:00,33.9,28.7,30.34,West,281,5.0,5.0,81,0.00,,,0.00,Wunderground v.1.13,2013-03-07 14:15:00,
2013-03-07 09:25:00,34.1,28.6,30.34,West,279,5.0,5.0,80,0.00,,,0.00,Wunderground v.1.13,2013-03-07 14:25:00,
2013-03-07 09:35:00,34.5,28.7,30.34,West,275,6.0,6.0,79,0.00,,,0.00,Wunderground v.1.13,2013-03-07 14:35:00,
2013-03-07 09:40:00,34.7,29.2,30.34,West,277,6.0,6.0,80,0.00,,,0.00,Wunderground v.1.13,2013-03-07 14:40:00,
2013-03-07 09:45:00,34.9,29.0,30.34,West,277,6.0,7.0,79,0.00,,,0.00,Wunderground v.1.13,2013-03-07 14:45:00,
2013-03-07 09:55:00,35.4,29.5,30.34,West,278,6.0,6.0,79,0.00,,,0.00,Wunderground v.1.13,2013-03-07 14:55:00,
2013-03-07 10:05:00,35.7,29.2,30.34,West,272,7.0,7.0,77,0.00,,,0.00,Wunderground v.1.13,2013-03-07 15:05:00,
2013-03-07 10:10:00,36.1,29.9,30.34,West,273,5.0,5.0,78,0.00,,,0.00,Wunderground v.1.13,2013-03-07 15:10:00,
2013-03-07 10:20:00,36.5,29.7,30.34,West,273,6.0,6.0,76,0.00,,,0.00,Wunderground v.1.13,2013-03-07 15:20:00,
2013-03-07 10:30:00,37.0,29.8,30.34,West,281,6.0,7.0,75,0.00,,,0.00,Wunderground v.1.13,2013-03-07 15:30:00,
2013-03-07 10:40:00,37.4,30.5,30.34,WNW,286,5.0,7.0,76,0.00,,,0.00,Wunderground v.1.13,2013-03-07 15:40:00,
2013-03-07 10:45:00,37.5,29.6,30.34,West,279,5.0,5.0,73,0.00,,,0.00,Wunderground v.1.13,2013-03-07 15:45:00,
2013-03-07 10:55:00,37.7,29.8,30.34,West,277,6.0,6.0,73,0.00,,,0.00,Wunderground v.1.13,2013-03-07 15:55:00,
2013-03-07 11:00:00,37.9,30.4,30.34,WSW,249,7.0,7.0,74,0.00,,,0.00,Wunderground v.1.13,2013-03-07 16:00:00,
2013-03-07 11:10:00,38.4,30.5,30.34,West,277,6.0,9.0,73,0.00,,,0.00,Wunderground v.1.13,2013-03-07 16:10:00,
2013-03-07 11:20:00,38.8,30.2,30.34,WNW,301,7.0,7.0,71,0.00,,,0.00,Wunderground v.1.13,2013-03-07 16:20:00,
2013-03-07 11:25:00,39.0,30.7,30.35,WNW,286,5.0,5.0,72,0.00,,,0.00,Wunderground v.1.13,2013-03-07 16:25:00,
2013-03-07 11:30:00,39.3,30.3,30.34,NW,309,3.0,3.0,70,0.00,,,0.00,Wunderground v.1.13,2013-03-07 16:30:00,
2013-03-07 11:40:00,39.1,30.1,30.34,NW,318,3.0,3.0,70,0.00,,,0.00,Wunderground v.1.13,2013-03-07 16:40:00,
2013-03-07 11:50:00,39.0,30.4,30.35,NW,309,3.0,3.0,71,0.00,,,0.00,Wunderground v.1.13,2013-03-07 16:50:00,
2013-03-07 11:55:00,38.9,30.3,30.35,NW,315,3.0,4.0,71,0.00,,,0.00,Wunderground v.1.13,2013-03-07 16:55:00,
2013-03-07 12:05:00,39.3,30.7,30.35,NW,315,3.0,4.0,71,0.00,,,0.00,Wunderground v.1.13,2013-03-07 17:05:00,
2013-03-07 12:10:00,39.2,30.9,30.35,NW,315,2.0,2.0,72,0.00,,,0.00,Wunderground v.1.13,2013-03-07 17:10:00,
2013-03-07 12:20:00,39.2,30.6,30.35,NW,317,3.0,5.0,71,0.00,,,0.00,Wunderground v.1.13,2013-03-07 17:20:00,
2013-03-07 12:30:00,39.2,30.9,30.35,WNW,288,3.0,7.0,72,0.00,,,0.00,Wunderground v.1.13,2013-03-07 17:30:00,
2013-03-07 12:35:00,38.9,29.9,30.35,WNW,292,5.0,8.0,70,0.00,,,0.00,Wunderground v.1.13,2013-03-07 17:35:00,
2013-03-07 12:45:00,39.1,30.1,30.34,NW,318,4.0,4.0,70,0.00,,,0.00,Wunderground v.1.13,2013-03-07 17:45:00,
2013-03-07 12:55:00,38.7,29.0,30.34,WNW,288,6.0,6.0,68,0.00,,,0.00,Wunderground v.1.13,2013-03-07 17:55:00,
2013-03-07 13:00:00,38.8,29.5,30.34,WNW,283,6.0,6.0,69,0.00,,,0.00,Wunderground v.1.13,2013-03-07 18:00:00,
2013-03-07 13:05:00,38.8,29.8,30.34,NW,310,4.0,4.0,70,0.00,,,0.00,Wunderground v.1.13,2013-03-07 18:05:00,
2013-03-07 13:15:00,38.8,29.5,30.33,West,278,7.0,7.0,69,0.00,,,0.00,Wunderground v.1.13,2013-03-07 18:15:00,
2013-03-07 13:25:00,39.3,30.3,30.33,West,277,7.0,7.0,70,0.00,,,0.00,Wunderground v.1.13,2013-03-07 18:25:00,
2013-03-07 13:30:00,39.9,30.5,30.33,West,271,6.0,8.0,69,0.00,,,0.00,Wunderground v.1.13,2013-03-07 18:30:00,
2013-03-07 13:40:00,40.4,30.3,30.33,WNW,296,5.0,6.0,67,0.00,,,0.00,Wunderground v.1.13,2013-03-07 18:40:00,
2013-03-07 13:45:00,40.4,29.6,30.33,West,274,4.0,6.0,65,0.00,,,0.00,Wunderground v.1.13,2013-03-07 18:45:00,
2013-03-07 13:50:00,40.3,29.5,30.33,NW,322,4.0,5.0,65,0.00,,,0.00,Wunderground v.1.13,2013-03-07 18:50:00,
2013-03-07 14:00:00,40.4,29.9,30.32,SW,219,2.0,2.0,66,0.00,,,0.00,Wunderground v.1.13,2013-03-07 19:00:00,
2013-03-07 14:05:00,40.5,30.0,30.32,WSW,241,2.0,2.0,66,0.00,,,0.00,Wunderground v.1.13,2013-03-07 19:05:00,
2013-03-07 14:10:00,40.4,29.9,30.32,West,279,2.0,8.0,66,0.00,,,0.00,Wunderground v.1.13,2013-03-07 19:10:00,
2013-03-07 14:20:00,40.6,30.1,30.32,WNW,282,4.0,6.0,66,0.00,,,0.00,Wunderground v.1.13,2013-03-07 19:20:00,
2013-03-07 14:25:00,40.6,30.1,30.32,WNW,288,4.0,8.0,66,0.00,,,0.00,Wunderground v.1.13,2013-03-07 19:25:00,
2013-03-07 14:35:00,40.5,29.7,30.32,West,267,6.0,7.0,65,0.00,,,0.00,Wunderground v.1.13,2013-03-07 19:35:00,
2013-03-07 14:45:00,40.4,29.6,30.32,WNW,284,8.0,9.0,65,0.00,,,0.00,Wunderground v.1.13,2013-03-07 19:45:00,
2013-03-07 14:55:00,40.4,29.9,30.32,West,281,5.0,6.0,66,0.00,,,0.00,Wunderground v.1.13,2013-03-07 19:55:00,
2013-03-07 15:00:00,40.3,30.2,30.32,West,279,6.0,6.0,67,0.00,,,0.00,Wunderground v.1.13,2013-03-07 20:00:00,
2013-03-07 15:05:00,40.3,30.6,30.32,West,277,5.0,8.0,68,0.00,,,0.00,Wunderground v.1.13,2013-03-07 20:05:00,
2013-03-07 15:15:00,40.0,30.6,30.32,West,275,6.0,6.0,69,0.00,,,0.00,Wunderground v.1.13,2013-03-07 20:15:00,
2013-03-07 15:25:00,39.7,31.1,30.32,West,269,7.0,7.0,71,0.00,,,0.00,Wunderground v.1.13,2013-03-07 20:25:00,
2013-03-07 15:30:00,39.6,31.0,30.32,West,273,7.0,7.0,71,0.00,,,0.00,Wunderground v.1.13,2013-03-07 20:30:00,
2013-03-07 15:35:00,39.5,30.9,30.32,West,263,7.0,7.0,71,0.00,,,0.00,Wunderground v.1.13,2013-03-07 20:35:00,
2013-03-07 15:40:00,39.7,31.4,30.32,WNW,293,6.0,6.0,72,0.00,,,0.00,Wunderground v.1.13,2013-03-07 20:40:00,
2013-03-07 15:50:00,41.0,32.0,30.32,West,277,6.0,11.0,70,0.00,,,0.00,Wunderground v.1.13,2013-03-07 20:50:00,
2013-03-07 16:00:00,41.2,31.8,30.32,WNW,288,5.0,5.0,69,0.00,,,0.00,Wunderground v.1.13,2013-03-07 21:00:00,
2013-03-07 16:05:00,41.4,31.6,30.32,West,270,4.0,7.0,68,0.00,,,0.00,Wunderground v.1.13,2013-03-07 21:05:00,
2013-03-07 16:10:00,41.3,30.8,30.32,West,271,6.0,10.0,66,0.00,,,0.00,Wunderground v.1.13,2013-03-07 21:10:00,
2013-03-07 16:15:00,41.1,31.0,30.33,WNW,289,8.0,10.0,67,0.00,,,0.00,Wunderground v.1.13,2013-03-07 21:15:00,
2013-03-07 16:25:00,40.7,30.2,30.33,WNW,286,8.0,8.0,66,0.00,,,0.00,Wunderground v.1.13,2013-03-07 21:25:00,
2013-03-07 16:35:00,40.6,30.5,30.33,WNW,291,8.0,8.0,67,0.00,,,0.00,Wunderground v.1.13,2013-03-07 21:35:00,
2013-03-07 16:45:00,40.6,30.5,30.33,WNW,289,8.0,8.0,67,0.00,,,0.00,Wunderground v.1.13,2013-03-07 21:45:00,
2013-03-07 16:55:00,40.6,30.9,30.33,WNW,284,6.0,9.0,68,0.00,,,0.00,Wunderground v.1.13,2013-03-07 21:55:00,
2013-03-07 17:05:00,40.4,30.7,30.33,West,281,6.0,6.0,68,0.00,,,0.00,Wunderground v.1.13,2013-03-07 22:05:00,
2013-03-07 17:10:00,40.2,30.8,30.34,WNW,289,6.0,6.0,69,0.00,,,0.00,Wunderground v.1.13,2013-03-07 22:10:00,
2013-03-07 17:20:00,39.9,31.3,30.34,WNW,290,3.0,3.0,71,0.00,,,0.00,Wunderground v.1.13,2013-03-07 22:20:00,
2013-03-07 17:25:00,39.8,31.2,30.34,West,281,4.0,4.0,71,0.00,,,0.00,Wunderground v.1.13,2013-03-07 22:25:00,
2013-03-07 17:35:00,39.6,30.6,30.34,West,271,6.0,10.0,70,0.00,,,0.00,Wunderground v.1.13,2013-03-07 22:35:00,
2013-03-07 17:45:00,39.4,30.8,30.34,WNW,291,9.0,9.0,71,0.00,,,0.00,Wunderground v.1.13,2013-03-07 22:45:00,
2013-03-07 17:55:00,39.2,30.6,30.34,WNW,285,6.0,6.0,71,0.00,,,0.00,Wunderground v.1.13,2013-03-07 22:55:00,
2013-03-07 18:05:00,39.1,31.2,30.35,WNW,286,3.0,3.0,73,0.00,,,0.00,Wunderground v.1.13,2013-03-07 23:05:00,
2013-03-07 18:10:00,39.0,31.1,30.35,WNW,290,3.0,8.0,73,0.00,,,0.00,Wunderground v.1.13,2013-03-07 23:10:00,
2013-03-07 18:20:00,38.9,30.6,30.35,WNW,290,4.0,4.0,72,0.00,,,0.00,Wunderground v.1.13,2013-03-07 23:20:00,
2013-03-07 18:30:00,38.6,31.0,30.35,NNW,327,5.0,5.0,74,0.00,,,0.00,Wunderground v.1.13,2013-03-07 23:30:00,
2013-03-07 18:35:00,38.2,31.0,30.35,NNW,329,4.0,4.0,75,0.00,,,0.00,Wunderground v.1.13,2013-03-07 23:35:00,
2013-03-07 18:45:00,37.7,30.8,30.35,NW,304,3.0,3.0,76,0.00,,,0.00,Wunderground v.1.13,2013-03-07 23:45:00,
2013-03-07 18:55:00,37.5,30.3,30.36,WNW,294,4.0,4.0,75,0.00,,,0.00,Wunderground v.1.13,2013-03-07 23:55:00,
2013-03-07 19:00:00,37.4,30.5,30.36,WNW,290,3.0,6.0,76,0.00,,,0.00,Wunderground v.1.13,2013-03-08 00:00:00,
2013-03-07 19:05:00,37.3,30.4,30.36,WNW,288,2.0,5.0,76,0.00,,,0.00,Wunderground v.1.13,2013-03-08 00:05:00,
2013-03-07 19:10:00,37.3,30.4,30.36,West,279,4.0,10.0,76,0.00,,,0.00,Wunderground v.1.13,2013-03-08 00:10:00,
2013-03-07 19:15:00,37.3,30.7,30.36,West,277,5.0,5.0,77,0.00,,,0.00,Wunderground v.1.13,2013-03-08 00:15:00,
2013-03-07 19:20:00,37.2,31.0,30.36,West,279,3.0,6.0,78,0.00,,,0.00,Wunderground v.1.13,2013-03-08 00:20:00,
2013-03-07 19:25:00,37.1,30.9,30.36,WNW,290,3.0,4.0,78,0.00,,,0.00,Wunderground v.1.13,2013-03-08 00:25:00,
2013-03-07 19:30:00,37.0,30.8,30.37,WNW,290,3.0,6.0,78,0.00,,,0.00,Wunderground v.1.13,2013-03-08 00:30:00,
2013-03-07 19:35:00,37.0,30.8,30.37,WNW,288,3.0,3.0,78,0.00,,,0.00,Wunderground v.1.13,2013-03-08 00:35:00,
2013-03-07 19:45:00,37.0,30.8,30.37,WNW,302,3.0,3.0,78,0.00,,,0.00,Wunderground v.1.13,2013-03-08 00:45:00,
2013-03-07 19:50:00,36.9,31.0,30.37,WNW,303,2.0,2.0,79,0.00,,,0.00,Wunderground v.1.13,2013-03-08 00:50:00,
2013-03-07 19:55:00,36.9,31.0,30.37,WNW,288,2.0,3.0,79,0.00,,,0.00,Wunderground v.1.13,2013-03-08 00:55:00,
2013-03-07 20:00:00,36.8,30.9,30.37,WNW,288,2.0,3.0,79,0.00,,,0.00,Wunderground v.1.13,2013-03-08 01:00:00,
2013-03-07 20:05:00,36.7,30.8,30.37,WNW,288,2.0,2.0,79,0.00,,,0.00,Wunderground v.1.13,2013-03-08 01:05:00,
2013-03-07 20:15:00,36.6,31.0,30.38,WNW,288,1.0,1.0,80,0.00,,,0.00,Wunderground v.1.13,2013-03-08 01:15:00,
2013-03-07 20:25:00,36.5,31.2,30.38,WNW,288,2.0,2.0,81,0.00,,,0.00,Wunderground v.1.13,2013-03-08 01:25:00,
2013-03-07 20:35:00,36.4,31.1,30.38,WNW,288,2.0,3.0,81,0.00,,,0.00,Wunderground v.1.13,2013-03-08 01:35:00,
2013-03-07 20:40:00,36.3,31.0,30.39,WNW,288,2.0,2.0,81,0.00,,,0.00,Wunderground v.1.13,2013-03-08 01:40:00,
2013-03-07 20:45:00,36.3,31.3,30.39,WNW,288,1.0,1.0,82,0.00,,,0.00,Wunderground v.1.13,2013-03-08 01:45:00,
2013-03-07 20:55:00,36.2,31.2,30.39,WNW,288,1.0,3.0,82,0.00,,,0.00,Wunderground v.1.13,2013-03-08 01:55:00,
2013-03-07 21:00:00,36.1,31.1,30.39,WNW,288,1.0,1.0,82,0.00,,,0.00,Wunderground v.1.13,2013-03-08 02:00:00,
2013-03-07 21:05:00,36.1,31.1,30.39,WNW,288,1.0,1.0,82,0.00,,,0.00,Wunderground v.1.13,2013-03-08 02:05:00,
2013-03-07 21:15:00,36.0,31.0,30.38,WNW,288,1.0,1.0,82,0.00,,,0.00,Wunderground v.1.13,2013-03-08 02:15:00,
2013-03-07 21:25:00,35.8,30.8,30.38,WNW,288,1.0,1.0,82,0.00,,,0.00,Wunderground v.1.13,2013-03-08 02:25:00,
2013-03-07 21:35:00,35.7,31.0,30.38,WNW,288,0.0,1.0,83,0.00,,,0.00,Wunderground v.1.13,2013-03-08 02:35:00,
2013-03-07 21:40:00,35.7,30.7,30.39,WNW,288,0.0,1.0,82,0.00,,,0.00,Wunderground v.1.13,2013-03-08 02:40:00,
2013-03-07 21:45:00,35.6,30.6,30.38,WNW,288,0.0,1.0,82,0.00,,,0.00,Wunderground v.1.13,2013-03-08 02:45:00,
2013-03-07 21:55:00,35.5,30.5,30.39,WNW,288,1.0,1.0,82,0.00,,,0.00,Wunderground v.1.13,2013-03-08 02:55:00,
2013-03-07 22:00:00,35.5,30.8,30.39,WNW,288,1.0,1.0,83,0.00,,,0.00,Wunderground v.1.13,2013-03-08 03:00:00,
2013-03-07 22:10:00,35.5,30.8,30.39,WNW,288,0.0,0.0,83,0.00,,,0.00,Wunderground v.1.13,2013-03-08 03:10:00,
2013-03-07 22:20:00,35.4,30.8,30.39,WNW,288,0.0,0.0,83,0.00,,,0.00,Wunderground v.1.13,2013-03-08 03:20:00,
2013-03-07 22:25:00,35.4,30.8,30.39,WNW,288,1.0,2.0,83,0.00,,,0.00,Wunderground v.1.13,2013-03-08 03:25:00,
2013-03-07 22:35:00,35.3,30.7,30.39,WNW,288,1.0,2.0,83,0.00,,,0.00,Wunderground v.1.13,2013-03-08 03:35:00,
2013-03-07 22:40:00,35.2,30.6,30.39,WNW,288,1.0,1.0,83,0.00,,,0.00,Wunderground v.1.13,2013-03-08 03:40:00,
2013-03-07 22:45:00,35.2,30.6,30.39,WNW,288,1.0,3.0,83,0.00,,,0.00,Wunderground v.1.13,2013-03-08 03:45:00,
2013-03-07 22:55:00,35.1,30.5,30.39,WNW,288,0.0,0.0,83,0.00,,,0.00,Wunderground v.1.13,2013-03-08 03:55:00,
2013-03-07 23:05:00,35.0,30.7,30.39,WNW,288,0.0,0.0,84,0.00,,,0.00,Wunderground v.1.13,2013-03-08 04:05:00,
2013-03-07 23:15:00,34.9,30.6,30.39,WNW,288,0.0,0.0,84,0.00,,,0.00,Wunderground v.1.13,2013-03-08 04:15:00,
2013-03-07 23:25:00,34.9,30.6,30.39,WNW,288,1.0,2.0,84,0.00,,,0.00,Wunderground v.1.13,2013-03-08 04:25:00,
2013-03-07 23:35:00,34.8,30.2,30.39,WNW,288,1.0,1.0,83,0.00,,,0.00,Wunderground v.1.13,2013-03-08 04:35:00,
2013-03-07 23:40:00,34.8,30.2,30.39,WNW,288,2.0,2.0,83,0.00,,,0.00,Wunderground v.1.13,2013-03-08 04:40:00,
2013-03-07 23:45:00,34.7,30.1,30.39,WNW,288,2.0,4.0,83,0.00,,,0.00,Wunderground v.1.13,2013-03-08 04:45:00,
2013-03-07 23:50:00,34.7,30.1,30.39,WNW,288,2.0,3.0,83,0.00,,,0.00,Wunderground v.1.13,2013-03-08 04:50:00,